Time;durP1;ratioP1;P1;durP2;ratioP2;P2;SDS_P1;SDS_P2;PMS_P1;PMS_P2;Temp;Humidity;BMP_temperature;BMP_pressure;BME280_temperature;BME280_humidity;BME280_pressure;Samples;Min_cycle;Max_cycle;Signal;HPM_P1;HPM_P2
2022/06/20 00:01:17;;;;;;;;;;;;;;;;;;;;;
2022/06/20 00:06:24;;;;;;;1.70;1.60;;;;;;;21.08;49.72;98122.23;220671;1270;22694;-69
2022/06/20 00:11:32;;;;;;;1.80;1.70;;;;;;;21.01;49.78;98107.15;220317;1270;25309;-69
2022/06/20 00:16:55;;;;;;;1.70;1.50;;;;;;;20.94;50.01;98122.88;220021;1270;302101;-69
2022/06/20 00:22:00;;;;;;;1.80;1.70;;;;;;;20.87;50.02;98138.42;220215;1270;26266;-68
2022/06/20 00:27:06;;;;;;;3.50;1.90;;;;;;;20.87;50.32;98142.25;220436;1270;25973;-68
2022/06/20 00:32:21;;;;;;;1.80;1.70;;;;;;;20.88;50.24;98129.88;220188;1270;23675;-69
2022/06/20 00:37:26;;;;;;;1.80;1.70;;;;;;;20.85;50.22;98129.63;220082;1270;25245;-69
2022/06/20 00:42:29;;;;;;;2.60;1.70;;;;;;;20.81;50.49;98130.36;220290;1270;22559;-69
2022/06/20 00:47:47;;;;;;;2.10;1.90;;;;;;;20.74;50.86;98104.77;220525;1270;22629;-69
2022/06/20 00:53:32;;;;;;;2.20;2.10;;;;;;;20.67;51.38;98101.65;220611;1270;25825;-68
2022/06/20 00:58:46;;;;;;;2.80;2.10;;;;;;;20.62;51.17;98101.73;219676;1270;22573;-69
2022/06/20 01:03:58;;;;;;;1.90;1.80;;;;;;;20.53;51.44;98098.54;220566;1270;22542;-69
2022/06/20 01:09:08;;;;;;;2.50;1.80;;;;;;;20.42;51.72;98083.48;220619;1270;22525;-69
2022/06/20 01:14:40;;;;;;;2.60;1.90;;;;;;;20.28;52.43;98079.29;220702;1270;25524;-69
2022/06/20 01:20:06;;;;;;;2.20;1.80;;;;;;;20.18;52.69;98070.14;220205;1272;22555;-68
2022/06/20 01:25:36;;;;;;;2.10;2.00;;;;;;;20.11;52.96;98067.33;220576;1270;22567;-69
2022/06/20 01:30:51;;;;;;;2.10;1.90;;;;;;;20.08;53.59;98046.78;220887;1270;22528;-69
2022/06/20 01:47:38;;;;;;;2.90;2.40;;;;;;;20.33;53.56;98036.91;220547;1270;22931;-68
2022/06/20 01:53:12;;;;;;;2.30;2.10;;;;;;;20.40;53.28;98025.64;220655;1270;24230;-69
2022/06/20 01:58:22;;;;;;;1.90;1.70;;;;;;;20.42;53.08;98017.04;220490;1270;24328;-68
2022/06/20 02:03:24;;;;;;;2.00;1.80;;;;;;;20.41;53.17;98011.90;220292;1271;24222;-68
2022/06/20 02:08:27;;;;;;;2.00;1.80;;;;;;;20.35;53.21;98012.68;220493;1268;22536;-69
2022/06/20 02:13:46;;;;;;;2.60;1.90;;;;;;;20.25;53.06;98012.11;220595;1268;22989;-68
2022/06/20 02:18:55;;;;;;;1.70;1.60;;;;;;;20.14;53.24;98013.39;220314;1271;25475;-68
2022/06/20 02:24:08;;;;;;;2.00;1.90;;;;;;;20.05;53.61;98007.29;220356;1270;25735;-68
2022/06/20 02:29:24;;;;;;;2.10;1.90;;;;;;;19.94;53.95;98005.15;220350;1270;22548;-68
2022/06/20 02:34:29;;;;;;;2.50;2.00;;;;;;;19.85;54.32;98005.73;220422;1268;22465;-68
2022/06/20 02:39:36;;;;;;;2.60;1.70;;;;;;;19.77;54.33;98013.08;220794;1270;22896;-68
2022/06/20 02:44:44;;;;;;;2.60;1.90;;;;;;;19.71;54.42;98021.52;220363;1271;22561;-69
2022/06/20 02:49:59;;;;;;;2.40;1.70;;;;;;;19.68;54.52;98035.75;220402;1270;22614;-68
2022/06/20 02:56:07;;;;;;;2.30;2.00;;;;;;;19.70;54.58;98046.65;220440;1271;23224;-69
2022/06/20 03:01:31;;;;;;;2.00;1.80;;;;;;;19.72;54.91;98044.73;220407;1270;22657;-69
2022/06/20 03:06:58;;;;;;;2.10;1.90;;;;;;;19.73;54.99;98047.61;220536;1270;22531;-69
2022/06/20 03:12:42;;;;;;;2.20;1.90;;;;;;;19.74;55.09;98045.61;220569;1271;25432;-69
2022/06/20 03:18:13;;;;;;;3.50;2.00;;;;;;;19.73;55.44;98041.02;220483;1271;22571;-69
2022/06/20 03:23:46;;;;;;;2.00;1.90;;;;;;;19.83;55.71;98049.88;220372;1270;22551;-69
2022/06/20 03:29:14;;;;;;;2.90;2.00;;;;;;;20.14;55.67;98052.68;220151;1271;22991;-68
2022/06/20 03:34:24;;;;;;;4.00;2.00;;;;;;;20.49;55.20;98047.66;220555;1271;22528;-68
2022/06/20 03:39:31;;;;;;;3.00;2.40;;;;;;;20.74;54.81;98039.30;220431;1270;23964;-69
2022/06/20 03:44:43;;;;;;;2.80;2.30;;;;;;;20.89;54.76;98036.95;220661;1269;25408;-69
2022/06/20 03:49:55;;;;;;;2.50;2.30;;;;;;;21.07;54.67;98047.23;220204;1269;22558;-70
2022/06/20 03:55:33;;;;;;;4.00;2.60;;;;;;;21.36;54.44;98054.86;220118;1270;22534;-68
2022/06/20 04:01:03;;;;;;;3.00;2.70;;;;;;;21.56;54.26;98054.55;220235;1272;22566;-70
2022/06/20 04:06:19;;;;;;;3.80;2.70;;;;;;;21.86;54.06;98064.23;220013;1268;22594;-68
2022/06/20 04:11:32;;;;;;;3.30;3.00;;;;;;;22.28;53.25;98071.38;220326;1268;22536;-70
2022/06/20 04:16:52;;;;;;;3.40;2.90;;;;;;;22.53;52.46;98081.23;220494;1271;26994;-70
2022/06/20 04:22:09;;;;;;;5.30;2.80;;;;;;;22.62;52.09;98073.77;220460;1268;22531;-69
2022/06/20 04:28:04;;;;;;;3.60;2.70;;;;;;;22.60;51.99;98064.33;220268;1271;22514;-69
2022/06/20 04:33:23;;;;;;;2.80;2.30;;;;;;;22.56;52.11;98069.77;220434;1269;24310;-69
2022/06/20 04:38:54;;;;;;;2.70;2.50;;;;;;;22.54;51.89;98075.23;220476;1269;22707;-69
2022/06/20 04:44:21;;;;;;;2.90;2.70;;;;;;;22.51;52.11;98083.56;220094;1271;24051;-69
2022/06/20 04:49:28;;;;;;;3.50;2.70;;;;;;;22.53;52.42;98085.20;220321;1271;25508;-69
2022/06/20 04:54:49;;;;;;;;;;;;;;;;;;;;;
2022/06/20 05:00:00;;;;;;;2.80;2.60;;;;;;;22.81;52.94;98084.66;220436;1271;22936;-68
2022/06/20 05:05:12;;;;;;;2.70;2.50;;;;;;;23.12;52.84;98089.77;220419;1269;24242;-69
2022/06/20 05:10:25;;;;;;;2.60;2.20;;;;;;;23.46;52.44;98094.25;220583;1268;23098;-69
2022/06/20 05:15:54;;;;;;;2.90;2.70;;;;;;;23.69;51.54;98093.45;219996;1272;24286;-70
2022/06/20 05:21:31;;;;;;;3.20;2.90;;;;;;;23.69;50.99;98097.20;219997;1271;22665;-69
2022/06/20 05:26:38;;;;;;;3.30;3.10;;;;;;;23.55;51.13;98093.40;220525;1268;24202;-69
2022/06/20 05:31:44;;;;;;;3.60;3.20;;;;;;;23.50;51.48;98096.98;220385;1271;22641;-69
2022/06/20 05:37:15;;;;;;;3.60;3.10;;;;;;;23.77;51.52;98095.39;220443;1268;22557;-68
2022/06/20 05:42:32;;;;;;;3.30;3.00;;;;;;;24.14;51.11;98086.90;220189;1268;22531;-68
2022/06/20 05:47:40;;;;;;;4.10;3.40;;;;;;;24.36;50.73;98082.73;220793;1268;25312;-70
2022/06/20 05:52:47;;;;;;;3.40;3.10;;;;;;;24.41;49.97;98080.91;220526;1270;22669;-70
2022/06/20 05:57:55;;;;;;;3.30;2.90;;;;;;;24.46;49.69;98081.37;220060;1270;22688;-69
2022/06/20 06:03:15;;;;;;;3.00;2.80;;;;;;;24.37;49.36;98079.93;220490;1268;22732;-69
2022/06/20 06:08:44;;;;;;;3.50;3.10;;;;;;;24.26;49.48;98072.39;219989;1268;23171;-69
2022/06/20 06:14:02;;;;;;;4.10;3.70;;;;;;;24.14;49.90;98067.83;219938;1268;25372;-69
2022/06/20 06:19:18;;;;;;;3.60;3.20;;;;;;;24.15;50.12;98063.20;220179;1269;25620;-69
2022/06/20 06:24:24;;;;;;;4.10;3.40;;;;;;;24.24;50.48;98055.04;220541;1268;22540;-70
2022/06/20 06:29:49;;;;;;;3.00;2.70;;;;;;;24.35;50.42;98049.67;220279;1270;22489;-69
2022/06/20 06:35:04;;;;;;;3.20;2.80;;;;;;;24.36;49.70;98045.99;220196;1267;22532;-69
2022/06/20 06:40:24;;;;;;;3.70;3.00;;;;;;;24.34;49.75;98047.95;220328;1270;22515;-69
2022/06/20 06:45:30;;;;;;;3.40;2.80;;;;;;;24.49;49.77;98042.41;220236;1268;24203;-69
2022/06/20 06:50:47;;;;;;;3.40;2.40;;;;;;;24.70;49.45;98037.94;220530;1270;22638;-68
2022/06/20 06:55:54;;;;;;;3.40;3.00;;;;;;;25.12;48.85;98044.67;220242;1268;22696;-70
2022/06/20 07:01:11;;;;;;;3.20;2.90;;;;;;;25.63;48.11;98047.84;220211;1269;22578;-69
2022/06/20 07:06:31;;;;;;;4.30;2.80;;;;;;;26.01;46.69;98045.59;220754;1268;22543;-69
2022/06/20 07:12:06;;;;;;;3.90;3.60;;;;;;;26.37;46.73;98037.77;220106;1269;22552;-69
2022/06/20 07:17:34;;;;;;;3.10;2.90;;;;;;;26.75;46.20;98035.06;220377;1268;25662;-70
2022/06/20 07:22:43;;;;;;;4.00;2.90;;;;;;;27.02;45.65;98033.24;222113;1268;22611;-70
2022/06/20 07:28:23;;;;;;;4.30;3.10;;;;;;;27.13;44.58;98026.79;221446;1268;22642;-69
2022/06/20 07:33:36;;;;;;;3.50;2.30;;;;;;;27.24;43.77;98020.95;219843;1270;24511;-68
2022/06/20 07:38:50;;;;;;;3.10;2.80;;;;;;;27.36;43.03;98008.90;220321;1268;22536;-69
2022/06/20 07:43:57;;;;;;;2.70;2.50;;;;;;;27.55;42.77;97993.95;220691;1268;22649;-70
2022/06/20 07:49:11;;;;;;;3.20;2.60;;;;;;;27.69;42.62;97992.59;220404;1268;22551;-68
2022/06/20 07:54:27;;;;;;;3.50;3.20;;;;;;;27.82;42.21;97979.98;220344;1268;24295;-69
2022/06/20 07:59:49;;;;;;;4.00;2.80;;;;;;;27.90;41.94;97968.50;220489;1268;22557;-69
2022/06/20 08:05:04;;;;;;;3.30;3.00;;;;;;;28.07;42.26;97958.59;219899;1268;26478;-69
2022/06/20 08:10:31;;;;;;;3.30;2.90;;;;;;;28.21;41.65;97948.69;220025;1267;22582;-69
2022/06/20 08:15:43;;;;;;;5.80;5.30;;;;;;;28.36;41.49;97939.70;219835;1270;22626;-69
2022/06/20 08:20:56;;;;;;;4.30;3.30;;;;;;;28.45;41.48;97935.63;220264;1268;24355;-69
2022/06/20 08:26:01;;;;;;;4.60;2.70;;;;;;;28.65;41.43;97935.97;220298;1268;22579;-69
2022/06/20 08:31:19;;;;;;;3.60;2.50;;;;;;;28.87;40.52;97924.02;220168;1268;22544;-69
2022/06/20 08:36:33;;;;;;;3.00;2.80;;;;;;;28.80;39.90;97928.45;220011;1268;22731;-69
2022/06/20 08:42:21;;;;;;;3.20;2.90;;;;;;;28.91;40.21;97914.01;220381;1268;24281;-69
2022/06/20 08:47:41;;;;;;;3.50;3.30;;;;;;;29.16;40.43;97906.73;221484;1270;22550;-69
2022/06/20 08:53:22;;;;;;;3.20;2.90;;;;;;;29.19;39.56;97895.85;220174;1268;22622;-69
2022/06/20 08:58:42;;;;;;;3.60;3.30;;;;;;;29.35;39.75;97899.79;219878;1270;24230;-69
2022/06/20 09:04:07;;;;;;;3.80;3.50;;;;;;;29.58;39.81;97892.28;219787;1270;23955;-70
2022/06/20 09:09:22;;;;;;;5.50;3.20;;;;;;;29.89;39.68;97881.52;220057;1268;23849;-69
2022/06/20 09:14:43;;;;;;;4.00;3.20;;;;;;;30.07;38.73;97876.90;221658;1268;22695;-69
2022/06/20 09:20:00;;;;;;;5.00;3.60;;;;;;;29.99;38.39;97869.74;221762;1268;25264;-69
2022/06/20 09:25:08;;;;;;;5.40;3.50;;;;;;;30.06;38.75;97866.05;220321;1268;22567;-69
2022/06/20 09:30:10;;;;;;;3.20;2.90;;;;;;;30.22;38.57;97853.95;220354;1268;22610;-69
2022/06/20 09:35:46;;;;;;;4.30;3.40;;;;;;;30.30;37.86;97843.03;220100;1270;22703;-70
2022/06/20 09:41:08;;;;;;;5.10;3.30;;;;;;;30.32;37.54;97837.59;221509;1270;22537;-70
2022/06/20 09:46:20;;;;;;;3.90;3.00;;;;;;;30.46;38.05;97834.30;221926;1268;23476;-70
2022/06/20 09:51:56;;;;;;;8.20;3.80;;;;;;;30.63;37.51;97814.11;221752;1268;22706;-70
2022/06/20 09:57:19;;;;;;;4.90;3.30;;;;;;;30.81;37.67;97803.54;222080;1268;25959;-70
2022/06/20 10:02:57;;;;;;;6.20;3.70;;;;;;;30.93;37.14;97794.34;219828;1270;25247;-69
2022/06/20 10:08:15;;;;;;;5.00;4.10;;;;;;;31.13;37.27;97787.40;220228;1268;24200;-69
2022/06/20 10:13:24;;;;;;;4.50;3.30;;;;;;;31.25;36.46;97790.92;220220;1268;24738;-69
2022/06/20 10:18:39;;;;;;;6.20;4.10;;;;;;;31.30;36.69;97809.45;220450;1268;25366;-69
2022/06/20 10:23:47;;;;;;;3.70;3.30;;;;;;;31.56;37.62;97832.45;220552;1268;22559;-70
2022/06/20 10:29:29;;;;;;;6.40;3.60;;;;;;;31.90;36.42;97859.24;219830;1268;22559;-69
2022/06/20 10:35:17;;;;;;;5.90;3.90;;;;;;;31.82;36.29;97851.02;220026;1268;26361;-69
2022/06/20 10:40:41;;;;;;;7.60;4.00;;;;;;;32.07;36.70;97844.02;220118;1268;25388;-70
2022/06/20 10:45:46;;;;;;;7.20;4.20;;;;;;;32.31;36.28;97828.54;220111;1268;22849;-68
2022/06/20 10:50:48;;;;;;;4.30;3.90;;;;;;;32.51;35.81;97837.03;221991;1270;22757;-68
2022/06/20 10:56:13;;;;;;;3.70;3.20;;;;;;;32.62;35.00;97837.31;219985;1270;22560;-72
2022/06/20 11:01:40;;;;;;;4.20;3.80;;;;;;;32.72;34.45;97849.27;220028;1270;24219;-70
2022/06/20 11:07:11;;;;;;;6.70;3.80;;;;;;;32.69;34.69;97905.30;220020;1268;25779;-70
2022/06/20 11:12:28;;;;;;;9.90;5.90;;;;;;;32.19;34.77;98010.55;221770;1270;22538;-69
2022/06/20 11:17:49;;;;;;;14.30;4.70;;;;;;;31.23;35.37;98047.38;222311;1267;22705;-69
2022/06/20 11:23:26;;;;;;;12.90;3.80;;;;;;;30.05;35.07;98091.44;221901;1268;22697;-69
2022/06/20 11:28:42;;;;;;;9.70;3.40;;;;;;;28.61;36.70;98103.30;221846;1270;25423;-70
2022/06/20 11:34:09;;;;;;;10.40;3.60;;;;;;;27.46;39.19;98100.86;222137;1268;22556;-70
2022/06/20 11:39:17;;;;;;;10.50;4.70;;;;;;;26.09;44.49;98116.63;221997;1268;24432;-70
2022/06/20 11:44:43;;;;;;;6.90;3.60;;;;;;;24.62;47.40;98093.41;222008;1268;22562;-70
2022/06/20 11:50:50;;;;;;;8.70;4.30;;;;;;;23.59;51.19;98090.88;220287;1270;22562;-69
2022/06/20 11:56:41;;;;;;;9.90;4.50;;;;;;;22.98;53.57;98083.37;220502;1269;25308;-69
2022/06/20 12:02:01;;;;;;;6.60;4.70;;;;;;;22.65;56.16;98073.62;219925;1270;22657;-71
2022/06/20 12:07:06;;;;;;;10.70;5.00;;;;;;;22.42;57.45;98081.89;222158;1268;22581;-70
2022/06/20 12:12:52;;;;;;;9.70;4.70;;;;;;;22.25;58.86;98068.85;222181;1268;22715;-70
2022/06/20 12:18:01;;;;;;;7.50;4.80;;;;;;;22.26;60.00;98050.39;216440;1270;5337033;-70
2022/06/20 12:23:23;;;;;;;8.80;5.40;;;;;;;22.38;60.78;98035.42;220583;1268;23345;-70
2022/06/20 12:28:50;;;;;;;6.30;4.40;;;;;;;22.58;61.17;98034.08;222008;1268;22532;-71
2022/06/20 12:34:36;;;;;;;10.20;5.40;;;;;;;22.77;61.27;98034.17;220321;1268;24142;-70
2022/06/20 12:39:47;;;;;;;6.30;4.70;;;;;;;23.02;61.62;98037.02;220078;1268;24272;-70
2022/06/20 12:45:31;;;;;;;7.00;4.70;;;;;;;23.03;61.69;98031.55;220372;1270;25353;-70
2022/06/20 12:50:53;;;;;;;7.00;5.30;;;;;;;22.85;62.13;98047.69;220216;1270;24684;-70
2022/06/20 12:56:07;;;;;;;7.20;4.70;;;;;;;22.68;62.64;98060.14;220251;1268;22884;-69
2022/06/20 13:01:51;;;;;;;9.10;6.00;;;;;;;22.39;64.03;98034.17;220346;1267;22565;-69
2022/06/20 13:06:57;;;;;;;10.40;5.70;;;;;;;22.10;65.20;98029.92;220507;1268;22566;-69
2022/06/20 13:12:37;;;;;;;7.90;5.70;;;;;;;21.75;66.51;98000.92;220428;1270;25248;-69
2022/06/20 13:18:32;;;;;;;7.20;5.40;;;;;;;21.46;67.76;98018.56;221858;1268;22534;-70
2022/06/20 13:23:40;;;;;;;7.30;4.80;;;;;;;21.26;68.90;98035.55;221425;1267;25249;-68
2022/06/20 13:28:56;;;;;;;8.80;4.90;;;;;;;21.15;70.36;98046.20;220369;1270;25329;-69
2022/06/20 13:34:25;;;;;;;8.30;5.20;;;;;;;21.01;71.89;98063.27;220296;1268;24258;-69
2022/06/20 13:39:53;;;;;;;7.70;5.00;;;;;;;20.88;71.88;98045.82;220252;1268;22522;-69
2022/06/20 13:45:10;;;;;;;6.90;4.30;;;;;;;20.76;71.74;98041.89;220447;1270;22576;-71
2022/06/20 13:50:16;;;;;;;7.10;5.50;;;;;;;20.63;72.11;98019.05;221292;1268;24277;-69
2022/06/20 13:55:44;;;;;;;9.80;4.80;;;;;;;20.51;72.44;98017.74;220949;1268;25370;-69
2022/06/20 14:01:07;;;;;;;8.10;4.30;;;;;;;20.38;74.00;97999.50;220258;1269;24276;-69
2022/06/20 14:06:16;;;;;;;8.70;4.90;;;;;;;20.20;75.92;97999.40;220616;1268;22543;-68
2022/06/20 14:11:32;;;;;;;7.60;4.30;;;;;;;20.03;78.17;98039.27;220654;1270;22554;-68
2022/06/20 14:16:46;;;;;;;7.30;4.80;;;;;;;19.83;78.38;98011.30;220937;1269;24711;-68
2022/06/20 14:21:56;;;;;;;8.90;5.60;;;;;;;19.73;79.61;97969.52;220666;1268;22532;-69
2022/06/20 14:27:22;;;;;;;10.10;5.30;;;;;;;19.73;80.54;97944.69;220652;1270;24719;-71
2022/06/20 14:33:10;;;;;;;8.30;4.70;;;;;;;19.78;80.35;97927.90;220997;1268;22538;-69
2022/06/20 14:38:55;;;;;;;8.10;5.40;;;;;;;19.78;80.89;97910.20;220283;1270;23826;-69
2022/06/20 14:50:14;;;;;;;8.00;5.40;;;;;;;19.92;79.75;97871.56;220787;1270;24440;-69
2022/06/20 14:55:39;;;;;;;8.40;5.50;;;;;;;20.12;79.91;97879.91;220537;1268;25403;-68
2022/06/20 15:01:20;;;;;;;5.60;4.60;;;;;;;20.27;79.95;97892.88;220762;1270;25382;-69
2022/06/20 15:06:50;;;;;;;5.70;4.40;;;;;;;20.32;80.00;97900.45;220736;1268;23967;-70
2022/06/20 15:12:18;;;;;;;5.70;5.20;;;;;;;20.47;80.48;97919.70;220826;1270;22538;-69
2022/06/20 15:17:41;;;;;;;7.10;5.20;;;;;;;20.62;80.15;97908.56;221084;1269;22683;-70
2022/06/20 15:22:54;;;;;;;7.40;4.70;;;;;;;20.83;79.84;97873.36;221815;1268;23120;-70
2022/06/20 15:28:17;;;;;;;6.10;4.40;;;;;;;21.20;79.64;97837.25;220845;1270;23124;-69
2022/06/20 15:33:25;;;;;;;8.70;7.00;;;;;;;21.57;78.82;97819.11;220962;1268;22599;-69
2022/06/20 15:38:47;;;;;;;8.10;6.00;;;;;;;21.92;78.55;97810.00;221358;1270;25363;-69
2022/06/20 15:44:01;;;;;;;5.80;5.00;;;;;;;22.50;77.86;97796.47;221928;1268;25370;-69
2022/06/20 15:49:52;;;;;;;5.40;4.40;;;;;;;22.93;76.44;97794.98;220746;1270;22621;-70
2022/06/20 15:55:33;;;;;;;7.50;4.00;;;;;;;23.34;74.60;97779.40;220413;1270;24229;-70
2022/06/20 16:00:44;;;;;;;5.50;4.30;;;;;;;23.56;73.23;97775.54;220544;1270;22733;-70
2022/06/20 16:05:53;;;;;;;5.90;4.30;;;;;;;23.61;72.03;97765.05;220825;1270;22631;-69
2022/06/20 16:11:24;;;;;;;5.00;4.50;;;;;;;23.53;71.11;97758.69;220926;1268;22521;-69
2022/06/20 16:16:31;;;;;;;8.00;4.50;;;;;;;23.33;70.72;97747.88;220441;1270;24264;-70
2022/06/20 16:21:58;;;;;;;6.20;4.60;;;;;;;23.07;70.66;97745.55;221736;1270;25513;-70
2022/06/20 16:27:31;;;;;;;5.40;4.10;;;;;;;22.81;70.76;97763.20;221556;1270;25448;-69
2022/06/20 16:32:39;;;;;;;5.00;3.80;;;;;;;22.51;70.76;97752.03;220970;1270;22535;-70
2022/06/20 16:37:44;;;;;;;4.60;3.80;;;;;;;22.25;71.25;97813.31;220856;1269;22559;-70
2022/06/20 16:43:10;;;;;;;7.20;4.90;;;;;;;21.92;72.35;97860.88;220453;1270;22961;-69
2022/06/20 16:48:32;;;;;;;5.60;4.60;;;;;;;21.54;73.19;97870.34;221364;1269;22577;-69
2022/06/20 16:54:20;;;;;;;5.20;4.50;;;;;;;21.32;74.39;97859.73;220750;1270;23041;-68
2022/06/20 16:59:47;;;;;;;6.90;4.90;;;;;;;21.26;75.40;97844.67;221458;1270;25444;-68
2022/06/20 17:05:31;;;;;;;6.80;4.30;;;;;;;21.24;75.49;97817.35;220941;1270;22543;-70
2022/06/20 17:10:57;;;;;;;8.90;5.50;;;;;;;21.24;76.34;97842.25;221360;1270;22531;-69
2022/06/20 17:16:25;;;;;;;6.60;4.80;;;;;;;21.11;76.40;97881.87;220568;1270;22560;-70
2022/06/20 17:21:56;;;;;;;6.00;4.90;;;;;;;20.93;76.68;97895.30;220952;1270;25246;-69
2022/06/20 17:27:21;;;;;;;7.70;5.80;;;;;;;20.77;77.12;97900.46;220940;1269;24140;-70
2022/06/20 17:33:32;;;;;;;7.80;5.90;;;;;;;20.62;77.69;97921.23;220463;1270;22626;-70
2022/06/20 17:39:13;;;;;;;6.90;5.90;;;;;;;20.47;78.32;97947.77;219940;1274;22731;-70
2022/06/20 17:45:11;;;;;;;8.80;7.00;;;;;;;20.34;78.93;97981.59;220713;1270;22584;-70
2022/06/20 17:50:41;;;;;;;10.80;7.20;;;;;;;20.17;79.66;97964.71;220771;1270;25367;-71
2022/06/20 17:56:11;;;;;;;9.80;7.30;;;;;;;20.06;80.07;97953.25;221710;1270;23026;-70
2022/06/20 18:01:25;;;;;;;10.60;7.50;;;;;;;20.04;80.27;97936.45;220848;1270;26502;-69
2022/06/20 18:06:33;;;;;;;9.30;7.30;;;;;;;20.00;80.17;97941.61;221718;1269;22541;-69
2022/06/20 18:11:59;;;;;;;11.60;7.70;;;;;;;19.96;80.39;97924.94;220817;1270;24059;-68
2022/06/20 18:17:10;;;;;;;9.50;6.80;;;;;;;19.89;80.47;97965.34;221184;1270;22718;-70
2022/06/20 18:22:29;;;;;;;6.40;4.60;;;;;;;19.78;80.78;97985.67;220781;1270;22551;-69
2022/06/20 18:27:41;;;;;;;5.70;3.70;;;;;;;19.56;80.48;98001.90;220672;1270;22646;-70
2022/06/20 18:32:51;;;;;;;4.50;4.10;;;;;;;19.32;80.20;98013.12;221847;1270;22864;-69
2022/06/20 18:38:14;;;;;;;4.20;3.80;;;;;;;19.08;80.25;98013.91;220776;1271;25509;-70
2022/06/20 18:43:29;;;;;;;4.00;3.20;;;;;;;18.85;80.31;98007.95;220874;1268;22609;-69
2022/06/20 18:48:49;;;;;;;4.10;3.20;;;;;;;18.68;80.25;98017.02;220832;1270;22531;-69
2022/06/20 18:54:12;;;;;;;;;;;;;;;18.52;80.32;98031.52;221034;1270;24252;-68
2022/06/20 18:59:30;;;;;;;3.00;2.70;;;;;;;18.32;80.33;98037.42;220976;1270;22606;-69
2022/06/20 19:04:32;;;;;;;3.90;3.30;;;;;;;18.18;80.50;98049.31;220801;1270;22518;-69
2022/06/20 19:09:59;;;;;;;4.00;3.70;;;;;;;18.08;80.68;98040.30;221130;1270;25253;-68
2022/06/20 19:15:19;;;;;;;;;;;;;;;17.93;80.71;98036.48;221066;1268;23819;-67
2022/06/20 19:21:00;;;;;;;3.30;3.00;;;;;;;17.81;80.88;98034.98;220917;1270;22707;-69
2022/06/20 19:26:54;;;;;;;3.60;3.10;;;;;;;17.70;81.22;98040.71;221102;1270;24355;-70
2022/06/20 19:32:44;;;;;;;4.50;3.60;;;;;;;17.61;81.25;98054.75;219753;1274;22581;-70
2022/06/20 19:38:32;;;;;;;;;;;;;;;;;;;;;
2022/06/20 19:44:20;;;;;;;6.00;5.40;;;;;;;17.41;81.80;98058.23;220878;1270;22554;-69
2022/06/20 19:50:30;;;;;;;5.10;4.50;;;;;;;17.24;82.14;98062.94;220601;1270;22646;-70
2022/06/20 19:55:52;;;;;;;3.00;2.40;;;;;;;17.04;82.68;98067.32;221827;1270;22581;-69
2022/06/20 20:01:10;;;;;;;4.30;3.90;;;;;;;16.86;82.81;98075.67;221794;1270;22564;-69
2022/06/20 20:06:19;;;;;;;5.20;4.70;;;;;;;16.64;82.88;98087.43;221990;1270;25251;-69
2022/06/20 20:11:37;;;;;;;4.60;4.20;;;;;;;16.38;83.07;98092.29;221598;1268;26629;-70
2022/06/20 20:17:07;;;;;;;4.50;4.00;;;;;;;16.14;83.07;98070.22;220875;1270;26503;-69
2022/06/20 20:22:39;;;;;;;4.70;3.60;;;;;;;15.95;83.10;98074.14;220958;1270;22555;-69
2022/06/20 20:27:55;;;;;;;3.90;3.50;;;;;;;15.81;83.43;98096.03;220737;1270;25254;-70
2022/06/20 20:33:06;;;;;;;3.70;3.40;;;;;;;15.73;83.41;98097.55;222088;1269;24259;-69
2022/06/20 20:38:49;;;;;;;3.80;3.30;;;;;;;15.67;83.28;98109.09;220927;1270;22543;-69
2022/06/20 20:44:25;;;;;;;2.40;2.20;;;;;;;15.64;83.45;98100.34;221956;1271;23335;-69
2022/06/20 20:49:37;;;;;;;5.40;2.20;;;;;;;15.62;83.31;98103.16;221720;1270;22653;-69
2022/06/20 20:54:49;;;;;;;3.10;2.80;;;;;;;15.63;83.28;98110.89;220663;1270;25263;-70
2022/06/20 21:00:06;;;;;;;4.50;2.80;;;;;;;15.63;83.02;98110.80;221442;1268;22625;-69
2022/06/20 21:05:21;;;;;;;2.00;1.90;;;;;;;15.59;82.66;98119.71;221190;1271;22630;-70
2022/06/20 21:10:30;;;;;;;2.20;1.90;;;;;;;15.52;82.47;98124.81;220989;1269;22750;-70
2022/06/20 21:15:49;;;;;;;1.60;1.40;;;;;;;15.42;82.36;98136.52;221585;1270;25368;-70
2022/06/20 21:21:11;;;;;;;2.10;1.50;;;;;;;15.31;82.14;98153.51;221146;1270;22676;-70
2022/06/20 21:26:19;;;;;;;1.80;1.60;;;;;;;15.23;82.16;98153.02;220999;1270;22714;-69
2022/06/20 21:31:29;;;;;;;1.40;1.30;;;;;;;15.16;81.95;98163.32;220727;1269;24470;-69
2022/06/20 21:36:40;;;;;;;2.60;1.90;;;;;;;15.07;82.11;98168.27;220823;1271;22545;-70
2022/06/20 21:41:54;;;;;;;3.10;1.50;;;;;;;15.01;81.99;98166.89;221604;1271;22642;-69
2022/06/20 21:47:12;;;;;;;2.00;1.70;;;;;;;14.95;82.00;98160.54;220859;1268;24263;-70
2022/06/20 21:52:30;;;;;;;3.00;1.90;;;;;;;14.89;81.81;98152.16;220569;1270;25853;-70
2022/06/20 21:57:43;;;;;;;2.60;1.80;;;;;;;14.80;81.66;98158.77;220761;1271;22554;-69
2022/06/20 22:08:23;;;;;;;3.40;2.20;;;;;;;14.65;82.05;98151.96;221610;1270;25408;-69
2022/06/20 22:13:50;;;;;;;1.90;1.80;;;;;;;14.64;82.10;98152.04;220437;1270;24621;-69
2022/06/20 22:19:20;;;;;;;3.10;1.70;;;;;;;14.59;81.99;98170.23;220574;1271;22688;-70
2022/06/20 22:24:49;;;;;;;2.60;1.50;;;;;;;14.49;81.85;98186.14;220913;1271;25351;-70
2022/06/20 22:30:04;;;;;;;1.80;1.70;;;;;;;14.36;81.34;98181.13;220621;1270;25265;-68
2022/06/20 22:35:36;;;;;;;2.70;1.60;;;;;;;14.24;81.15;98174.21;220481;1270;24227;-68
2022/06/20 22:40:45;;;;;;;2.70;1.60;;;;;;;14.18;81.22;98175.61;220724;1271;22611;-69
2022/06/20 22:46:09;;;;;;;4.70;1.70;;;;;;;14.13;81.19;98176.94;220662;1271;25533;-68
2022/06/20 22:51:33;;;;;;;2.80;2.10;;;;;;;14.03;81.39;98181.42;220732;1268;22557;-68
2022/06/20 22:56:35;;;;;;;4.40;2.30;;;;;;;13.96;81.40;98189.89;220727;1269;22711;-69
2022/06/20 23:01:59;;;;;;;2.90;2.70;;;;;;;13.89;81.52;98193.41;220722;1270;22780;-68
2022/06/20 23:07:02;;;;;;;3.30;2.90;;;;;;;13.83;81.59;98189.92;221073;1268;23075;-69
2022/06/20 23:12:18;;;;;;;3.00;2.80;;;;;;;13.77;81.66;98195.39;220550;1271;22531;-68
2022/06/20 23:23:00;;;;;;;3.00;2.80;;;;;;;13.65;81.51;98183.38;220421;1271;26011;-69
2022/06/20 23:28:16;;;;;;;3.40;3.10;;;;;;;13.61;81.49;98186.98;220704;1271;22653;-70
2022/06/20 23:33:50;;;;;;;3.30;3.00;;;;;;;13.56;81.35;98189.02;220455;1271;24334;-69
2022/06/20 23:39:27;;;;;;;3.00;2.70;;;;;;;13.52;81.42;98190.30;220677;1271;22532;-69
2022/06/20 23:44:41;;;;;;;3.10;2.80;;;;;;;13.47;81.41;98193.29;220285;1271;22534;-70
2022/06/20 23:49:43;;;;;;;3.20;2.90;;;;;;;13.42;81.43;98198.88;220543;1271;22560;-69
2022/06/20 23:55:06;;;;;;;3.90;2.40;;;;;;;13.38;81.44;98199.48;220650;1270;24224;-70
